createdAt,value
2018-01-25T00:00:16.829Z,0
2018-01-25T00:01:16.030Z,0
2018-01-25T00:02:17.329Z,0
2018-01-25T00:03:16.238Z,0
2018-01-25T00:04:16.122Z,0
2018-01-25T00:05:16.567Z,0
2018-01-25T00:06:15.927Z,0
2018-01-25T00:07:16.774Z,0
2018-01-25T00:08:38.498Z,0
2018-01-25T00:09:39.328Z,0
2018-01-25T00:10:38.944Z,0
2018-01-25T00:11:39.963Z,0
2018-01-25T00:12:38.823Z,0
2018-01-25T00:13:38.890Z,0
2018-01-25T00:14:39.775Z,0
2018-01-25T00:15:39.034Z,0
2018-01-25T00:17:01.171Z,0
2018-01-25T00:18:01.656Z,0
2018-01-25T00:19:01.643Z,0
2018-01-25T00:20:00.961Z,0
2018-01-25T00:21:01.655Z,0
2018-01-25T00:22:01.074Z,0
2018-01-25T00:23:01.870Z,0
2018-01-25T00:24:01.271Z,0
2018-01-25T00:25:02.179Z,0
2018-01-25T00:26:01.779Z,0
2018-01-25T00:27:00.930Z,0
2018-01-25T00:28:01.458Z,0
2018-01-25T00:29:00.867Z,0
2018-01-25T00:30:01.294Z,0
2018-01-25T00:31:01.967Z,0
2018-01-25T00:32:02.307Z,0
2018-01-25T00:33:02.003Z,0
2018-01-25T00:34:01.578Z,0
2018-01-25T00:35:01.975Z,0
2018-01-25T00:36:01.868Z,0
2018-01-25T00:37:01.549Z,0
2018-01-25T00:38:01.352Z,0
2018-01-25T00:39:02.285Z,0
2018-01-25T00:40:01.608Z,0
2018-01-25T00:41:01.318Z,0
2018-01-25T00:42:02.034Z,0
2018-01-25T00:43:01.851Z,0
2018-01-25T00:44:01.818Z,0
2018-01-25T00:45:01.778Z,0
2018-01-25T00:46:01.394Z,0
2018-01-25T00:47:00.868Z,0
2018-01-25T00:48:02.413Z,0
2018-01-25T00:49:03.090Z,0
2018-01-25T00:50:03.108Z,0
2018-01-25T00:51:02.878Z,0
2018-01-25T00:52:01.959Z,0
2018-01-25T00:53:01.867Z,0
2018-01-25T00:54:01.702Z,0
2018-01-25T00:55:01.495Z,0
2018-01-25T00:56:01.349Z,0
2018-01-25T00:57:24.354Z,0
2018-01-25T00:58:25.005Z,0
2018-01-25T00:59:24.848Z,0
2018-01-25T01:00:24.606Z,0
2018-01-25T01:01:25.358Z,0
2018-01-25T01:02:47.409Z,0
2018-01-25T01:03:47.811Z,0
2018-01-25T01:04:47.154Z,0
2018-01-25T01:05:47.866Z,0
2018-01-25T01:06:47.801Z,0
2018-01-25T01:07:48.203Z,0
2018-01-25T01:08:47.959Z,0
2018-01-25T01:09:47.815Z,0
2018-01-25T01:10:48.571Z,0
2018-01-25T01:11:48.430Z,0
2018-01-25T01:12:48.386Z,0
2018-01-25T01:13:48.289Z,0
2018-01-25T01:14:48.106Z,0
2018-01-25T01:15:47.836Z,0
2018-01-25T01:16:48.542Z,0
2018-01-25T01:17:48.449Z,0
2018-01-25T01:18:48.219Z,0
2018-01-25T01:19:48.033Z,0
2018-01-25T01:20:47.867Z,0
2018-01-25T01:21:47.212Z,0
2018-01-25T01:22:47.658Z,0
2018-01-25T01:23:48.518Z,0
2018-01-25T01:24:47.910Z,0
2018-01-25T01:25:47.372Z,0
2018-01-25T01:26:47.747Z,0
2018-01-25T01:27:48.606Z,0
2018-01-25T01:28:48.166Z,0
2018-01-25T01:29:47.868Z,0
2018-01-25T01:30:47.726Z,0
2018-01-25T01:31:48.907Z,0
2018-01-25T01:32:47.343Z,0
2018-01-25T01:33:47.897Z,0
2018-01-25T01:34:48.653Z,0
2018-01-25T01:35:48.459Z,0
2018-01-25T01:36:48.354Z,0
2018-01-25T01:37:48.341Z,0
2018-01-25T01:39:54.473Z,0
2018-01-25T01:40:54.962Z,0
2018-01-25T01:41:55.721Z,0
2018-01-25T01:42:55.684Z,0
2018-01-25T01:43:55.249Z,0
2018-01-25T01:45:17.593Z,0
2018-01-25T01:46:18.419Z,0
2018-01-25T01:47:18.046Z,0
2018-01-25T01:48:17.789Z,0
2018-01-25T01:49:40.518Z,0
2018-01-25T01:50:41.312Z,0
2018-01-25T01:51:41.014Z,0
2018-01-25T01:54:01.005Z,0
2018-01-25T01:55:01.791Z,0
2018-01-25T01:56:01.620Z,0
2018-01-25T01:57:01.016Z,0
2018-01-25T01:58:01.794Z,0
2018-01-25T01:59:01.167Z,0
2018-01-25T02:00:01.431Z,0
2018-01-25T02:01:01.198Z,0
2018-01-25T02:02:01.558Z,0
2018-01-25T02:03:01.493Z,0
2018-01-25T02:04:23.335Z,0
2018-01-25T02:05:24.330Z,0
2018-01-25T02:06:24.021Z,0
2018-01-25T02:07:23.478Z,0
2018-01-25T02:08:24.215Z,0
2018-01-25T02:09:23.866Z,0
2018-01-25T02:10:24.572Z,0
2018-01-25T02:11:24.278Z,0
2018-01-25T02:12:46.545Z,0
2018-01-25T02:13:47.345Z,0
2018-01-25T02:14:47.146Z,0
2018-01-25T02:15:46.808Z,0
2018-01-25T02:16:47.146Z,0
2018-01-25T02:17:46.838Z,0
2018-01-25T02:18:46.468Z,0
2018-01-25T02:19:47.279Z,0
2018-01-25T02:20:46.543Z,0
2018-01-25T02:21:47.107Z,0
2018-01-25T02:22:46.601Z,0
2018-01-25T02:23:46.997Z,0
2018-01-25T02:24:46.185Z,0
2018-01-25T02:25:46.848Z,0
2018-01-25T02:26:46.688Z,0
2018-01-25T02:27:46.491Z,0
2018-01-25T02:29:08.846Z,0
2018-01-25T02:30:09.712Z,0
2018-01-25T02:31:09.232Z,0
2018-01-25T02:32:09.526Z,0
2018-01-25T02:33:11.881Z,0
2018-01-25T02:34:09.543Z,0
2018-01-25T02:35:10.142Z,0
2018-01-25T02:36:09.864Z,0
2018-01-25T02:37:09.433Z,0
2018-01-25T02:38:10.047Z,0
2018-01-25T02:39:09.758Z,0
2018-01-25T02:40:09.383Z,0
2018-01-25T02:41:10.234Z,0
2018-01-25T02:42:09.644Z,0
2018-01-25T02:43:09.292Z,0
2018-01-25T02:44:09.552Z,0
2018-01-25T02:45:09.374Z,0
2018-01-25T02:46:09.659Z,0
2018-01-25T02:47:09.924Z,0
2018-01-25T02:48:32.371Z,0
2018-01-25T02:49:32.947Z,0
2018-01-25T02:50:32.982Z,0
2018-01-25T02:51:32.896Z,0
2018-01-25T02:52:32.621Z,0
2018-01-25T02:53:31.886Z,0
2018-01-25T02:54:32.089Z,0
2018-01-25T02:55:32.976Z,0
2018-01-25T02:56:32.679Z,0
2018-01-25T02:57:32.017Z,0
2018-01-25T02:58:32.792Z,0
2018-01-25T02:59:55.002Z,0
2018-01-25T03:00:55.867Z,0
2018-01-25T03:01:55.592Z,0
2018-01-25T03:02:54.961Z,0
2018-01-25T03:03:55.598Z,0
2018-01-25T03:04:55.289Z,0
2018-01-25T03:05:55.050Z,0
2018-01-25T03:06:55.362Z,0
2018-01-25T03:07:54.761Z,0
2018-01-25T03:08:55.344Z,0
2018-01-25T03:09:54.799Z,0
2018-01-25T03:10:55.659Z,0
2018-01-25T03:11:54.920Z,0
2018-01-25T03:12:55.817Z,0
2018-01-25T03:13:55.735Z,0
2018-01-25T03:14:55.311Z,0
2018-01-25T03:15:55.453Z,0
2018-01-25T03:16:54.971Z,0
2018-01-25T03:17:55.226Z,0
2018-01-25T03:18:55.137Z,0
2018-01-25T03:19:55.349Z,0
2018-01-25T03:20:54.903Z,0
2018-01-25T03:21:55.183Z,0
2018-01-25T03:22:55.536Z,0
2018-01-25T03:23:54.891Z,0
2018-01-25T03:24:55.558Z,0
2018-01-25T03:25:55.455Z,0
2018-01-25T03:26:55.040Z,0
2018-01-25T03:27:55.686Z,0
2018-01-25T03:28:55.317Z,0
2018-01-25T03:29:55.302Z,0
2018-01-25T03:30:55.010Z,0
2018-01-25T03:31:54.969Z,0
2018-01-25T03:32:55.655Z,0
2018-01-25T03:33:55.304Z,0
2018-01-25T03:34:55.018Z,0
2018-01-25T03:35:56.018Z,0
2018-01-25T03:36:55.721Z,0
2018-01-25T03:38:17.372Z,0
2018-01-25T03:39:17.604Z,0
2018-01-25T03:40:18.481Z,0
2018-01-25T03:41:40.197Z,0
2018-01-25T03:42:40.736Z,0
2018-01-25T03:43:41.416Z,0
2018-01-25T03:44:41.067Z,0
2018-01-25T03:45:40.908Z,0
2018-01-25T03:46:42.357Z,0
2018-01-25T03:47:40.533Z,0
2018-01-25T03:48:41.028Z,0
2018-01-25T03:49:40.709Z,0
2018-01-25T03:50:41.174Z,0
2018-01-25T03:51:40.990Z,0
2018-01-25T03:53:03.488Z,0
2018-01-25T03:54:25.797Z,0
2018-01-25T03:55:26.236Z,0
2018-01-25T03:56:49.254Z,0
2018-01-25T03:57:49.953Z,0
2018-01-25T03:58:49.720Z,0
2018-01-25T03:59:49.489Z,0
2018-01-25T04:00:50.185Z,0
2018-01-25T04:01:49.860Z,0
2018-01-25T04:02:49.325Z,0
2018-01-25T04:03:49.810Z,0
2018-01-25T04:04:49.592Z,0
2018-01-25T04:05:49.327Z,0
2018-01-25T04:06:50.065Z,0
2018-01-25T04:07:49.488Z,0
2018-01-25T04:08:49.979Z,0
2018-01-25T04:09:49.514Z,0
2018-01-25T04:10:49.240Z,0
2018-01-25T04:11:49.420Z,0
2018-01-25T04:12:49.935Z,0
2018-01-25T04:13:49.824Z,0
2018-01-25T04:14:49.420Z,0
2018-01-25T04:15:50.155Z,0
2018-01-25T04:16:49.369Z,0
2018-01-25T04:17:49.591Z,0
2018-01-25T04:18:49.123Z,0
2018-01-25T04:19:50.039Z,0
2018-01-25T04:20:49.904Z,0
2018-01-25T04:21:49.304Z,0
2018-01-25T04:22:50.751Z,0
2018-01-25T04:23:49.496Z,0
2018-01-25T04:24:49.706Z,0
2018-01-25T04:25:49.466Z,0
2018-01-25T04:26:49.570Z,0
2018-01-25T04:27:49.365Z,0
2018-01-25T04:28:49.809Z,0
2018-01-25T04:29:49.621Z,0
2018-01-25T04:30:50.155Z,0
2018-01-25T04:31:49.491Z,0
2018-01-25T04:32:50.152Z,0
2018-01-25T04:34:11.996Z,0
2018-01-25T04:35:12.712Z,0
2018-01-25T04:36:12.191Z,0
2018-01-25T04:37:12.771Z,0
2018-01-25T04:38:12.261Z,0
2018-01-25T04:39:12.681Z,0
2018-01-25T04:40:12.264Z,0
2018-01-25T04:41:35.397Z,0
2018-01-25T04:42:35.913Z,0
2018-01-25T04:43:36.425Z,0
2018-01-25T04:44:36.269Z,0
2018-01-25T04:45:35.594Z,0
2018-01-25T04:46:36.137Z,0
2018-01-25T04:47:35.882Z,0
2018-01-25T04:48:36.685Z,0
2018-01-25T04:49:36.245Z,0
2018-01-25T04:50:35.945Z,0
2018-01-25T04:51:35.725Z,0
2018-01-25T04:52:36.491Z,0
2018-01-25T04:53:35.778Z,0
2018-01-25T04:54:36.201Z,0
2018-01-25T04:55:35.543Z,0
2018-01-25T04:56:36.368Z,0
2018-01-25T04:57:35.540Z,0
2018-01-25T04:58:35.802Z,0
2018-01-25T04:59:36.313Z,0
2018-01-25T05:00:36.020Z,0
2018-01-25T05:01:35.802Z,0
2018-01-25T05:02:35.989Z,0
2018-01-25T05:03:35.486Z,0
2018-01-25T05:04:35.896Z,0
2018-01-25T05:05:35.652Z,0
2018-01-25T05:06:36.567Z,0
2018-01-25T05:07:35.836Z,0
2018-01-25T05:08:35.419Z,0
2018-01-25T05:09:36.176Z,0
2018-01-25T05:10:35.828Z,0
2018-01-25T05:11:36.613Z,0
2018-01-25T05:12:35.915Z,0
2018-01-25T05:13:35.308Z,0
2018-01-25T05:14:36.047Z,0
2018-01-25T05:15:35.780Z,0
2018-01-25T05:16:36.344Z,0
2018-01-25T05:17:35.689Z,0
2018-01-25T05:18:35.732Z,0
2018-01-25T05:19:35.511Z,0
2018-01-25T05:20:36.324Z,0
2018-01-25T05:21:35.787Z,0
2018-01-25T05:22:36.461Z,0
2018-01-25T05:23:36.100Z,0
2018-01-25T05:24:58.133Z,0
2018-01-25T05:25:59.293Z,0
2018-01-25T05:26:58.090Z,0
2018-01-25T05:27:58.407Z,0
2018-01-25T05:28:58.125Z,0
2018-01-25T05:29:58.424Z,0
2018-01-25T05:30:58.217Z,0
2018-01-25T05:31:59.431Z,0
2018-01-25T05:32:57.797Z,0
2018-01-25T05:33:58.529Z,0
2018-01-25T05:34:57.902Z,0
2018-01-25T05:35:58.708Z,0
2018-01-25T05:36:58.511Z,0
2018-01-25T05:37:59.385Z,0
2018-01-25T05:38:58.640Z,0
2018-01-25T05:39:58.519Z,0
2018-01-25T05:40:58.425Z,0
2018-01-25T05:41:57.883Z,0
2018-01-25T05:42:58.421Z,0
2018-01-25T05:43:57.804Z,0
2018-01-25T05:44:58.851Z,0
2018-01-25T05:45:58.418Z,0
2018-01-25T05:47:21.093Z,0
2018-01-25T05:48:21.117Z,0
2018-01-25T05:49:20.599Z,0
2018-01-25T05:50:21.381Z,0
2018-01-25T05:51:21.058Z,0
2018-01-25T05:52:48.210Z,0
2018-01-25T05:53:46.298Z,0
2018-01-25T05:54:45.854Z,0
2018-01-25T05:55:45.929Z,0
2018-01-25T05:56:46.910Z,0
2018-01-25T05:57:46.110Z,0
2018-01-25T05:58:45.880Z,0
2018-01-25T05:59:45.474Z,0
2018-01-25T06:00:46.633Z,0
2018-01-25T06:02:08.874Z,0
2018-01-25T06:03:09.436Z,0
2018-01-25T06:04:10.729Z,0
2018-01-25T06:05:10.416Z,0
2018-01-25T06:06:13.246Z,0
2018-01-25T06:07:09.918Z,0
2018-01-25T06:08:10.027Z,0
2018-01-25T06:09:09.971Z,0
2018-01-25T06:10:09.699Z,0
2018-01-25T06:11:10.086Z,0
2018-01-25T06:12:09.533Z,0
2018-01-25T06:13:09.104Z,0
2018-01-25T06:14:09.491Z,0
2018-01-25T06:15:09.143Z,0
2018-01-25T06:16:10.063Z,0
2018-01-25T06:17:32.631Z,0
2018-01-25T06:18:33.402Z,0
2018-01-25T06:19:33.619Z,0
2018-01-25T06:20:55.416Z,0
2018-01-25T06:21:56.135Z,0
2018-01-25T06:22:55.506Z,0
2018-01-25T06:23:56.528Z,0
2018-01-25T06:24:56.457Z,0
2018-01-25T06:25:57.997Z,0
2018-01-25T06:27:01.229Z,0
2018-01-25T06:28:03.173Z,0
2018-01-25T06:29:19.316Z,0
2018-01-25T06:30:19.740Z,0
2018-01-25T06:31:19.378Z,0
2018-01-25T06:32:20.175Z,0
2018-01-25T06:33:42.443Z,0
2018-01-25T06:34:42.884Z,0
2018-01-25T06:35:42.281Z,0
2018-01-25T06:36:43.735Z,0
2018-01-25T06:37:42.366Z,0
2018-01-25T06:38:46.499Z,0
2018-01-25T06:39:47.563Z,0
2018-01-25T06:40:43.050Z,0
2018-01-25T06:41:42.970Z,0
2018-01-25T06:42:42.293Z,0
2018-01-25T06:43:43.385Z,0
2018-01-25T06:44:42.682Z,0
2018-01-25T06:45:43.161Z,0
2018-01-25T06:46:42.627Z,0
2018-01-25T06:47:42.966Z,0
2018-01-25T06:48:42.484Z,0
2018-01-25T06:50:05.313Z,0
2018-01-25T06:51:06.197Z,0
2018-01-25T06:52:06.760Z,0
2018-01-25T06:53:29.225Z,0
2018-01-25T06:54:30.255Z,0
2018-01-25T06:55:29.728Z,0
2018-01-25T06:56:29.482Z,0
2018-01-25T06:57:30.066Z,0
2018-01-25T06:58:29.639Z,0
2018-01-25T06:59:29.755Z,0
2018-01-25T07:00:29.370Z,0
2018-01-25T07:01:30.031Z,0
2018-01-25T07:02:32.340Z,0
2018-01-25T07:03:29.865Z,0
2018-01-25T07:04:30.040Z,0
2018-01-25T07:05:29.949Z,0
2018-01-25T07:06:30.023Z,0
2018-01-25T07:07:29.997Z,0
2018-01-25T07:08:29.465Z,0
2018-01-25T07:09:28.820Z,0
2018-01-25T07:10:29.195Z,0
2018-01-25T07:11:35.716Z,1
2018-01-25T07:12:52.387Z,1
2018-01-25T07:13:53.186Z,1
2018-01-25T07:14:53.053Z,1
2018-01-25T07:15:52.589Z,1
2018-01-25T07:16:52.352Z,1
2018-01-25T07:17:52.277Z,1
2018-01-25T07:18:53.245Z,1
2018-01-25T07:19:53.192Z,1
2018-01-25T07:20:52.950Z,1
2018-01-25T07:21:52.630Z,2
2018-01-25T07:22:52.044Z,2
2018-01-25T07:23:52.661Z,2
2018-01-25T07:24:52.082Z,2
2018-01-25T07:25:53.210Z,2
2018-01-25T07:26:53.245Z,3
2018-01-25T07:27:53.201Z,3
2018-01-25T07:28:52.625Z,4
2018-01-25T07:29:52.506Z,4
2018-01-25T07:30:52.551Z,4
2018-01-25T07:31:52.158Z,5
2018-01-25T07:33:15.502Z,5
2018-01-25T07:34:39.434Z,6
2018-01-25T07:35:39.460Z,6
2018-01-25T07:36:39.644Z,6
2018-01-25T07:37:39.668Z,6
2018-01-25T07:38:39.253Z,7
2018-01-25T07:39:40.501Z,6
2018-01-25T07:40:39.270Z,6
2018-01-25T07:41:40.005Z,7
2018-01-25T07:42:39.919Z,7
2018-01-25T07:44:02.704Z,7
2018-01-25T07:45:03.652Z,7
2018-01-25T07:46:03.246Z,7
2018-01-25T07:47:02.729Z,7
2018-01-25T07:48:03.620Z,7
2018-01-25T07:49:03.732Z,7
2018-01-25T07:50:03.471Z,8
2018-01-25T07:51:25.592Z,9
2018-01-25T07:52:26.414Z,10
2018-01-25T07:53:26.442Z,11
2018-01-25T07:54:26.177Z,12
2018-01-25T07:55:26.146Z,13
2018-01-25T07:56:25.935Z,13
2018-01-25T07:57:26.057Z,13
2018-01-25T07:58:25.969Z,15
2018-01-25T07:59:25.666Z,15
2018-01-25T08:00:26.281Z,16
2018-01-25T08:01:26.369Z,17
2018-01-25T08:02:25.884Z,17
2018-01-25T08:03:26.838Z,18
2018-01-25T08:04:26.246Z,19
2018-01-25T08:05:25.828Z,19
2018-01-25T08:06:26.682Z,18
2018-01-25T08:07:49.515Z,16
2018-01-25T08:08:49.014Z,17
2018-01-25T08:09:49.973Z,17
2018-01-25T08:10:49.945Z,18
2018-01-25T08:11:50.025Z,18
2018-01-25T08:12:49.990Z,19
2018-01-25T08:13:49.757Z,20
2018-01-25T08:14:49.307Z,20
2018-01-25T08:16:12.590Z,21
2018-01-25T08:17:13.537Z,21
2018-01-25T08:18:35.950Z,20
2018-01-25T08:19:36.805Z,20
2018-01-25T08:20:36.387Z,20
2018-01-25T08:21:37.531Z,21
2018-01-25T08:22:36.595Z,23
2018-01-25T08:23:36.016Z,22
2018-01-25T08:24:59.086Z,20
2018-01-25T08:26:00.128Z,21
2018-01-25T08:27:00.039Z,19
2018-01-25T08:28:00.060Z,17
2018-01-25T08:28:59.580Z,17
2018-01-25T08:30:00.340Z,16
2018-01-25T08:31:00.343Z,20
2018-01-25T08:31:59.984Z,20
2018-01-25T08:33:00.015Z,21
2018-01-25T08:34:00.106Z,19
2018-01-25T08:34:59.769Z,22
2018-01-25T08:35:59.238Z,20
2018-01-25T08:37:00.374Z,20
2018-01-25T08:37:59.850Z,21
2018-01-25T08:38:59.241Z,27
2018-01-25T08:39:59.642Z,21
2018-01-25T08:40:59.472Z,22
2018-01-25T08:42:00.445Z,23
2018-01-25T08:42:59.716Z,21
2018-01-25T08:43:59.571Z,24
2018-01-25T08:44:59.927Z,31
2018-01-25T08:45:59.356Z,31
2018-01-25T08:46:59.877Z,32
2018-01-25T08:47:59.297Z,36
2018-01-25T08:48:59.878Z,43
2018-01-25T08:49:59.821Z,46
2018-01-25T08:50:59.619Z,51
2018-01-25T08:51:59.640Z,54
2018-01-25T08:53:01.041Z,55
2018-01-25T08:53:59.982Z,58
2018-01-25T08:54:59.564Z,58
2018-01-25T08:56:00.040Z,61
2018-01-25T08:56:59.693Z,62
2018-01-25T08:57:59.750Z,61
2018-01-25T08:58:59.728Z,59
2018-01-25T09:00:00.026Z,56
2018-01-25T09:01:00.236Z,50
2018-01-25T09:02:00.135Z,46
2018-01-25T09:03:00.249Z,48
2018-01-25T09:04:00.250Z,52
2018-01-25T09:05:00.374Z,52
2018-01-25T09:05:59.996Z,55
2018-01-25T09:06:59.899Z,57
2018-01-25T09:07:59.829Z,46
2018-01-25T09:08:59.832Z,45
2018-01-25T09:09:59.641Z,53
2018-01-25T09:10:59.270Z,49
2018-01-25T09:12:00.266Z,49
2018-01-25T09:12:59.709Z,49
2018-01-25T09:13:59.386Z,50
2018-01-25T09:14:59.818Z,52
2018-01-25T09:15:59.446Z,54
2018-01-25T09:16:59.993Z,54
2018-01-25T09:18:00.031Z,56
2018-01-25T09:18:59.845Z,58
2018-01-25T09:19:59.803Z,59
2018-01-25T09:20:59.835Z,59
2018-01-25T09:21:59.366Z,55
2018-01-25T09:22:59.746Z,54
2018-01-25T09:23:59.421Z,55
2018-01-25T09:25:00.158Z,56
2018-01-25T09:25:59.637Z,58
2018-01-25T09:26:59.178Z,57
2018-01-25T09:28:00.452Z,54
2018-01-25T09:28:59.911Z,55
2018-01-25T09:30:00.025Z,55
2018-01-25T09:31:00.480Z,50
2018-01-25T09:31:59.533Z,48
2018-01-25T09:32:59.412Z,47
2018-01-25T09:34:42.738Z,52
2018-01-25T09:35:43.844Z,53
2018-01-25T09:36:43.908Z,54
2018-01-25T09:37:44.010Z,53
2018-01-25T09:38:43.583Z,56
2018-01-25T09:39:43.428Z,60
2018-01-25T09:40:43.146Z,62
2018-01-25T09:41:42.881Z,65
2018-01-25T09:42:43.231Z,68
2018-01-25T09:43:43.037Z,68
2018-01-25T09:44:43.861Z,72
2018-01-25T09:45:43.933Z,74
2018-01-25T09:46:44.062Z,71
2018-01-25T09:47:44.005Z,66
2018-01-25T09:48:44.123Z,71
2018-01-25T09:49:43.117Z,78
2018-01-25T09:50:43.532Z,79
2018-01-25T09:51:43.247Z,78
2018-01-25T09:52:43.221Z,77
2018-01-25T09:53:43.521Z,77
2018-01-25T09:54:43.231Z,74
2018-01-25T09:55:42.788Z,74
2018-01-25T09:56:44.033Z,76
2018-01-25T09:58:06.878Z,77
2018-01-25T09:59:06.837Z,77
2018-01-25T10:00:06.844Z,76
2018-01-25T10:01:07.124Z,79
2018-01-25T10:02:06.583Z,84
2018-01-25T10:03:07.719Z,88
2018-01-25T10:04:06.733Z,89
2018-01-25T10:05:30.000Z,84
2018-01-25T10:06:30.102Z,84
2018-01-25T10:07:30.709Z,85
2018-01-25T10:08:30.553Z,89
2018-01-25T10:09:30.424Z,91
2018-01-25T10:10:30.501Z,90
2018-01-25T10:11:30.764Z,88
2018-01-25T10:12:30.836Z,87
2018-01-25T10:13:30.697Z,82
2018-01-25T10:14:30.576Z,82
2018-01-25T10:15:30.422Z,85
2018-01-25T10:16:30.584Z,90
2018-01-25T10:17:30.740Z,90
2018-01-25T10:18:30.401Z,90
2018-01-25T10:19:29.881Z,90
2018-01-25T10:20:30.304Z,87
2018-01-25T10:21:30.389Z,85
2018-01-25T10:22:29.973Z,89
2018-01-25T10:23:30.451Z,90
2018-01-25T10:24:29.950Z,91
2018-01-25T10:25:31.050Z,92
2018-01-25T10:26:30.153Z,90
2018-01-25T10:27:30.245Z,86
2018-01-25T10:28:30.168Z,90
2018-01-25T10:29:51.726Z,97
2018-01-25T10:30:52.552Z,94
2018-01-25T10:31:52.689Z,83
2018-01-25T10:32:52.105Z,82
2018-01-25T10:33:53.048Z,86
2018-01-25T10:34:52.632Z,79
2018-01-25T10:35:52.683Z,72
2018-01-25T10:36:52.646Z,80
2018-01-25T10:37:52.828Z,76
2018-01-25T10:39:14.079Z,72
2018-01-25T10:40:14.602Z,75
2018-01-25T10:41:14.763Z,75
2018-01-25T10:42:14.698Z,67
2018-01-25T10:43:14.491Z,56
2018-01-25T10:44:16.205Z,56
2018-01-25T10:45:14.834Z,59
2018-01-25T10:46:14.768Z,56
2018-01-25T10:47:14.543Z,44
2018-01-25T10:48:15.455Z,40
2018-01-25T10:49:15.020Z,41
2018-01-25T10:50:36.231Z,36
2018-01-25T10:51:36.126Z,36
2018-01-25T10:52:37.232Z,37
2018-01-25T10:53:36.795Z,41
2018-01-25T10:54:36.353Z,33
2018-01-25T10:55:35.831Z,33
2018-01-25T10:56:36.604Z,37
2018-01-25T10:57:36.640Z,39
2018-01-25T10:58:36.547Z,37
2018-01-25T10:59:35.986Z,39
2018-01-25T11:00:36.564Z,45
2018-01-25T11:01:36.189Z,36
2018-01-25T11:02:37.059Z,37
2018-01-25T11:03:36.573Z,38
2018-01-25T11:04:36.117Z,37
2018-01-25T11:05:36.493Z,35
2018-01-25T11:06:36.285Z,33
2018-01-25T11:07:35.814Z,39
2018-01-25T11:08:36.379Z,41
2018-01-25T11:09:36.292Z,36
2018-01-25T11:10:36.656Z,31
2018-01-25T11:11:36.631Z,35
2018-01-25T11:12:35.975Z,44
2018-01-25T11:13:58.095Z,39
2018-01-25T11:14:58.838Z,40
2018-01-25T11:15:58.300Z,45
2018-01-25T11:16:59.638Z,43
2018-01-25T11:17:58.634Z,40
2018-01-25T11:18:58.920Z,39
2018-01-25T11:19:58.250Z,41
2018-01-25T11:20:59.231Z,37
2018-01-25T11:21:59.145Z,44
2018-01-25T11:22:58.859Z,43
2018-01-25T11:23:59.290Z,40
2018-01-25T11:24:59.232Z,39
2018-01-25T11:25:58.811Z,44
2018-01-25T11:26:59.385Z,48
2018-01-25T11:27:59.222Z,46
2018-01-25T11:28:59.107Z,45
2018-01-25T11:29:58.603Z,44
2018-01-25T11:30:58.894Z,39
2018-01-25T11:31:58.681Z,37
2018-01-25T11:32:58.090Z,38
2018-01-25T11:33:58.974Z,41
2018-01-25T11:34:58.421Z,39
2018-01-25T11:36:20.768Z,38
2018-01-25T11:37:43.423Z,33
2018-01-25T11:38:43.807Z,38
2018-01-25T11:39:43.086Z,39
2018-01-25T11:41:05.513Z,40
2018-01-25T11:42:05.449Z,45
2018-01-25T11:43:05.031Z,38
2018-01-25T11:44:06.009Z,38
2018-01-25T11:45:05.939Z,36
2018-01-25T11:46:05.939Z,36
2018-01-25T11:47:05.842Z,33
2018-01-25T11:48:05.290Z,41
2018-01-25T11:49:06.281Z,47
2018-01-25T11:50:04.727Z,41
2018-01-25T11:51:05.191Z,35
2018-01-25T11:52:06.448Z,33
2018-01-25T11:53:05.409Z,40
2018-01-25T11:54:04.901Z,37
2018-01-25T11:55:05.976Z,36
2018-01-25T11:56:05.545Z,48
2018-01-25T11:57:05.414Z,52
2018-01-25T11:58:05.770Z,52
2018-01-25T11:59:05.447Z,58
2018-01-25T12:00:27.941Z,62
2018-01-25T12:01:27.259Z,66
2018-01-25T12:02:27.046Z,68
2018-01-25T12:03:27.987Z,68
2018-01-25T12:04:27.820Z,64
2018-01-25T12:05:27.592Z,66
2018-01-25T12:06:27.575Z,67
2018-01-25T12:07:27.764Z,68
2018-01-25T12:08:27.725Z,58
2018-01-25T12:09:28.112Z,53
2018-01-25T12:10:26.629Z,50
2018-01-25T12:11:27.498Z,50
2018-01-25T12:12:27.462Z,51
2018-01-25T12:13:27.521Z,46
2018-01-25T12:14:28.050Z,40
2018-01-25T12:15:28.208Z,38
2018-01-25T12:16:27.346Z,34
2018-01-25T12:17:26.833Z,30
2018-01-25T12:18:27.358Z,32
2018-01-25T12:19:27.155Z,34
2018-01-25T12:20:26.704Z,27
2018-01-25T12:21:27.850Z,25
2018-01-25T12:22:27.406Z,29
2018-01-25T12:23:49.014Z,24
2018-01-25T12:24:50.056Z,22
2018-01-25T12:25:48.881Z,22
2018-01-25T12:26:49.814Z,21
2018-01-25T12:27:49.575Z,24
2018-01-25T12:28:50.182Z,24
2018-01-25T12:29:49.054Z,21
2018-01-25T12:30:48.670Z,20
2018-01-25T12:31:49.537Z,28
2018-01-25T12:32:49.499Z,24
2018-01-25T12:33:48.894Z,24
2018-01-25T12:35:10.739Z,34
2018-01-25T12:36:11.204Z,39
2018-01-25T12:37:12.227Z,42
2018-01-25T12:38:11.931Z,37
2018-01-25T12:39:11.892Z,30
2018-01-25T12:40:11.887Z,24
2018-01-25T12:41:11.747Z,30
2018-01-25T12:42:12.259Z,50
2018-01-25T12:43:11.627Z,64
2018-01-25T12:44:11.163Z,64
2018-01-25T12:45:11.727Z,60
2018-01-25T12:46:13.459Z,59
2018-01-25T12:47:33.880Z,50
2018-01-25T12:48:34.130Z,42
2018-01-25T12:49:34.558Z,41
2018-01-25T12:50:34.115Z,35
2018-01-25T12:51:33.922Z,27
2018-01-25T12:52:54.882Z,23
2018-01-25T12:54:38.298Z,25
2018-01-25T12:55:39.565Z,27
2018-01-25T12:56:39.313Z,26
2018-01-25T12:57:39.244Z,27
2018-01-25T12:59:01.628Z,19
2018-01-25T13:00:02.381Z,15
2018-01-25T13:01:03.527Z,17
2018-01-25T13:02:02.334Z,22
2018-01-25T13:03:01.988Z,21
2018-01-25T13:04:01.438Z,17
2018-01-25T13:05:02.224Z,17
2018-01-25T13:06:01.938Z,22
2018-01-25T13:07:01.680Z,23
2018-01-25T13:08:01.751Z,21
2018-01-25T13:09:01.448Z,20
2018-01-25T13:10:01.974Z,24
2018-01-25T13:11:01.656Z,26
2018-01-25T13:12:01.582Z,30
2018-01-25T13:13:24.100Z,40
2018-01-25T13:14:24.654Z,38
2018-01-25T13:15:24.395Z,29
2018-01-25T13:16:24.268Z,28
2018-01-25T13:17:24.372Z,26
2018-01-25T13:18:24.840Z,24
2018-01-25T13:19:24.487Z,24
2018-01-25T13:20:24.108Z,24
2018-01-25T13:21:24.476Z,33
2018-01-25T13:22:24.390Z,46
2018-01-25T13:23:27.865Z,53
2018-01-25T13:24:24.318Z,56
2018-01-25T13:25:23.728Z,50
2018-01-25T13:26:24.573Z,45
2018-01-25T13:27:24.586Z,38
2018-01-25T13:28:24.687Z,28
2018-01-25T13:29:24.696Z,22
2018-01-25T13:30:23.908Z,19
2018-01-25T13:31:24.432Z,19
2018-01-25T13:32:45.963Z,28
2018-01-25T13:33:46.829Z,33
2018-01-25T13:34:46.854Z,36
2018-01-25T13:35:46.754Z,30
2018-01-25T13:36:47.011Z,23
2018-01-25T13:37:46.762Z,20
2018-01-25T13:38:46.617Z,16
2018-01-25T13:40:31.691Z,17
2018-01-25T13:41:31.696Z,26
2018-01-25T13:42:31.693Z,37
2018-01-25T13:43:31.902Z,43
2018-01-25T13:45:00.274Z,46
2018-01-25T13:45:56.740Z,44
2018-01-25T13:47:20.127Z,39
2018-01-25T13:48:20.218Z,40
2018-01-25T13:49:43.143Z,36
2018-01-25T13:50:43.121Z,35
2018-01-25T13:51:44.060Z,34
2018-01-25T13:52:43.042Z,33
2018-01-25T13:53:42.587Z,32
2018-01-25T13:54:43.089Z,28
2018-01-25T13:55:43.114Z,26
2018-01-25T13:56:44.233Z,24
2018-01-25T13:57:43.224Z,20
2018-01-25T13:58:43.226Z,21
2018-01-25T13:59:43.223Z,21
2018-01-25T14:00:43.036Z,20
2018-01-25T14:01:43.983Z,18
2018-01-25T14:02:43.073Z,15
2018-01-25T14:03:46.215Z,13
2018-01-25T14:04:43.084Z,16
2018-01-25T14:05:42.990Z,26
2018-01-25T14:06:43.037Z,33
2018-01-25T14:07:43.485Z,39
2018-01-25T14:08:43.315Z,43
2018-01-25T14:09:43.308Z,42
2018-01-25T14:10:43.172Z,40
2018-01-25T14:11:43.338Z,41
2018-01-25T14:12:43.433Z,49
2018-01-25T14:13:43.224Z,51
2018-01-25T14:14:43.395Z,51
2018-01-25T14:15:43.311Z,54
2018-01-25T14:16:43.089Z,57
2018-01-25T14:17:42.764Z,59
2018-01-25T14:19:05.530Z,59
2018-01-25T14:20:07.159Z,59
2018-01-25T14:21:05.592Z,59
2018-01-25T14:22:05.674Z,58
2018-01-25T14:23:05.607Z,57
2018-01-25T14:24:30.814Z,53
2018-01-25T14:25:36.492Z,52
2018-01-25T14:26:31.195Z,50
2018-01-25T14:27:31.364Z,50
2018-01-25T14:28:31.363Z,49
2018-01-25T14:29:32.293Z,49
2018-01-25T14:30:32.531Z,48
2018-01-25T14:31:31.164Z,48
2018-01-25T14:32:30.884Z,48
2018-01-25T14:33:30.913Z,47
2018-01-25T14:34:30.952Z,46
2018-01-25T14:35:31.007Z,45
2018-01-25T14:36:31.088Z,43
2018-01-25T14:37:30.696Z,42
2018-01-25T14:38:30.826Z,38
2018-01-25T14:39:30.927Z,36
2018-01-25T14:40:53.776Z,31
2018-01-25T14:41:54.349Z,28
2018-01-25T14:42:54.885Z,28
2018-01-25T14:43:54.536Z,28
2018-01-25T14:44:53.998Z,29
2018-01-25T14:45:54.605Z,30
2018-01-25T14:46:53.211Z,30
2018-01-25T14:47:54.367Z,29
2018-01-25T14:49:17.189Z,27
2018-01-25T14:50:17.083Z,26
2018-01-25T14:51:18.738Z,24
2018-01-25T14:52:17.761Z,22
2018-01-25T14:53:42.947Z,21
2018-01-25T14:54:41.912Z,21
2018-01-25T14:55:41.943Z,21
2018-01-25T14:56:42.037Z,20
2018-01-25T14:57:42.277Z,18
2018-01-25T14:58:42.233Z,20
2018-01-25T14:59:40.949Z,20